createdAt,value
2023-05-12T00:00:17.850Z,97319.28
2023-05-12T00:02:47.893Z,97319.94
2023-05-12T00:05:17.987Z,97313.75
2023-05-12T00:07:48.927Z,97319.28
2023-05-12T00:10:21.395Z,97309.19
2023-05-12T00:12:51.831Z,97317.69
2023-05-12T00:15:22.011Z,97319.44
2023-05-12T00:17:53.135Z,97321.13
2023-05-12T00:20:23.528Z,97311.94
2023-05-12T00:22:53.996Z,97316.69
2023-05-12T00:25:25.679Z,97307.47
2023-05-12T00:27:55.671Z,97308.69
2023-05-12T00:30:24.915Z,97304.63
2023-05-12T00:32:54.655Z,97308.69
2023-05-12T00:35:26.599Z,97314.50
2023-05-12T00:37:57.030Z,97301.50
2023-05-12T00:40:28.479Z,97299.94
2023-05-12T00:42:59.441Z,97299.75
2023-05-12T00:45:30.004Z,97304.84
2023-05-12T00:48:00.165Z,97296.00
2023-05-12T00:50:30.079Z,97301.03
2023-05-12T00:53:02.541Z,97300.06
2023-05-12T00:55:33.910Z,97300.59
2023-05-12T00:58:04.094Z,97296.06
2023-05-12T01:00:35.003Z,97297.69
2023-05-12T01:03:06.009Z,97294.38
2023-05-12T01:05:41.334Z,97297.31
2023-05-12T01:08:11.477Z,97297.88
2023-05-12T01:10:46.288Z,97299.03
2023-05-12T01:13:16.253Z,97298.78
2023-05-12T01:15:49.529Z,97296.13
2023-05-12T01:18:22.381Z,97299.59
2023-05-12T01:20:53.945Z,97297.56
2023-05-12T01:23:29.678Z,97296.72
2023-05-12T01:26:07.212Z,97294.78
2023-05-12T01:28:38.345Z,97293.34
2023-05-12T01:31:10.342Z,97296.91
2023-05-12T01:33:42.857Z,97293.78
2023-05-12T01:36:13.852Z,97295.97
2023-05-12T01:38:43.286Z,97300.94
2023-05-12T01:41:15.222Z,97302.16
2023-05-12T01:43:46.373Z,97295.00
2023-05-12T01:46:16.779Z,97293.25
2023-05-12T01:48:47.373Z,97297.25
2023-05-12T01:51:18.925Z,97292.50
2023-05-12T01:53:48.726Z,97299.63
2023-05-12T01:56:20.652Z,97293.59
2023-05-12T01:58:51.119Z,97294.44
2023-05-12T02:01:21.650Z,97292.28
2023-05-12T02:03:52.248Z,97289.47
2023-05-12T02:06:23.134Z,97297.13
2023-05-12T02:08:53.376Z,97294.06
2023-05-12T02:11:25.930Z,97291.91
2023-05-12T02:13:56.648Z,97293.09
2023-05-12T02:16:26.506Z,97297.69
2023-05-12T02:18:56.166Z,97291.97
2023-05-12T02:21:28.104Z,97286.91
2023-05-12T02:23:58.220Z,97286.84
2023-05-12T02:26:30.090Z,97279.50
2023-05-12T02:29:00.179Z,97284.59
2023-05-12T02:31:30.174Z,97281.75
2023-05-12T02:34:02.171Z,97277.06
2023-05-12T02:36:34.280Z,97279.59
2023-05-12T02:39:04.259Z,97274.69
2023-05-12T02:41:36.234Z,97272.22
2023-05-12T02:44:06.655Z,97279.44
2023-05-12T02:46:37.733Z,97274.25
2023-05-12T02:49:07.813Z,97276.34
2023-05-12T02:51:38.284Z,97268.28
2023-05-12T02:54:08.494Z,97265.69
2023-05-12T02:56:40.527Z,97269.69
2023-05-12T02:59:10.373Z,97273.63
2023-05-12T03:01:41.731Z,97270.47
2023-05-12T03:04:11.780Z,97279.66
2023-05-12T03:06:41.530Z,97282.41
2023-05-12T03:09:11.789Z,97266.97
2023-05-12T03:11:43.809Z,97270.38
2023-05-12T03:14:13.807Z,97279.16
2023-05-12T03:16:43.880Z,97282.09
2023-05-12T03:19:13.745Z,97278.09
2023-05-12T03:21:44.063Z,97278.00
2023-05-12T03:24:14.498Z,97277.19
2023-05-12T03:26:46.514Z,97274.28
2023-05-12T03:29:16.828Z,97283.16
2023-05-12T03:31:47.368Z,97281.22
2023-05-12T03:34:17.357Z,97280.31
2023-05-12T03:36:47.009Z,97285.44
2023-05-12T03:39:17.784Z,97279.53
2023-05-12T03:41:49.784Z,97281.22
2023-05-12T03:44:20.067Z,97281.75
2023-05-12T03:46:50.397Z,97288.38
2023-05-12T03:49:20.432Z,97294.97
2023-05-12T03:51:51.183Z,97283.31
2023-05-12T03:54:21.925Z,97288.66
2023-05-12T03:56:54.900Z,97290.41
2023-05-12T03:59:25.057Z,97295.66
2023-05-12T04:01:55.359Z,97295.13
2023-05-12T04:04:24.881Z,97287.72
2023-05-12T04:06:55.673Z,97288.22
2023-05-12T04:09:25.684Z,97289.81
2023-05-12T04:11:59.832Z,97293.09
2023-05-12T04:14:41.801Z,97299.19
2023-05-12T04:17:13.526Z,97290.72
2023-05-12T04:19:43.989Z,97294.63
2023-05-12T04:22:13.686Z,97297.88
2023-05-12T04:24:43.565Z,97300.53
2023-05-12T04:27:15.117Z,97302.13
2023-05-12T04:29:44.758Z,97299.78
2023-05-12T04:32:14.776Z,97307.94
2023-05-12T04:34:45.965Z,97311.66
2023-05-12T04:37:16.819Z,97303.69
2023-05-12T04:39:47.010Z,97313.13
2023-05-12T04:42:19.036Z,97313.19
2023-05-12T04:44:49.355Z,97320.16
2023-05-12T04:47:19.971Z,97319.88
2023-05-12T04:49:50.984Z,97326.63
2023-05-12T04:52:21.528Z,97325.69
2023-05-12T04:54:52.853Z,97334.44
2023-05-12T04:57:24.770Z,97330.34
2023-05-12T05:00:05.267Z,97331.34
2023-05-12T05:02:37.713Z,97331.63
2023-05-12T05:05:09.540Z,97326.44
2023-05-12T05:07:40.369Z,97329.94
2023-05-12T05:10:13.785Z,97339.00
2023-05-12T05:12:45.811Z,97327.63
2023-05-12T05:15:15.539Z,97328.00
2023-05-12T05:17:49.656Z,97336.72
2023-05-12T05:20:20.263Z,97334.34
2023-05-12T05:22:51.139Z,97328.13
2023-05-12T05:25:21.547Z,97329.16
2023-05-12T05:27:54.122Z,97327.38
2023-05-12T05:30:24.418Z,97333.94
2023-05-12T05:32:55.114Z,97339.50
2023-05-12T05:35:25.084Z,97343.78
2023-05-12T05:37:55.663Z,97346.66
2023-05-12T05:40:25.507Z,97338.13
2023-05-12T05:42:58.367Z,97335.09
2023-05-12T05:45:28.547Z,97343.72
2023-05-12T05:47:58.545Z,97346.00
2023-05-12T05:50:28.373Z,97344.88
2023-05-12T05:52:58.553Z,97345.53
2023-05-12T05:55:28.721Z,97352.28
2023-05-12T05:57:59.735Z,97343.53
2023-05-12T06:00:30.016Z,97349.06
2023-05-12T06:02:59.973Z,97349.88
2023-05-12T06:05:30.313Z,97353.13
2023-05-12T06:08:01.578Z,97356.69
2023-05-12T06:10:31.466Z,97354.00
2023-05-12T06:13:04.942Z,97363.53
2023-05-12T06:15:36.581Z,97370.66
2023-05-12T06:18:07.560Z,97372.69
2023-05-12T06:20:37.789Z,97377.94
2023-05-12T06:23:20.860Z,97382.16
2023-05-12T06:25:51.404Z,97383.31
2023-05-12T06:28:23.108Z,97377.31
2023-05-12T06:30:55.538Z,97387.97
2023-05-12T06:33:26.473Z,97389.06
2023-05-12T06:35:58.851Z,97386.94
2023-05-12T06:38:29.877Z,97390.69
2023-05-12T06:41:00.480Z,97398.06
2023-05-12T06:43:32.996Z,97393.91
2023-05-12T06:46:03.734Z,97398.06
2023-05-12T06:48:34.931Z,97401.47
2023-05-12T06:51:06.305Z,97396.28
2023-05-12T06:53:38.015Z,97395.69
2023-05-12T06:56:11.981Z,97395.53
2023-05-12T06:58:45.754Z,97395.78
2023-05-12T07:01:17.471Z,97392.06
2023-05-12T07:03:48.144Z,97389.69
2023-05-12T07:06:18.621Z,97400.31
2023-05-12T07:08:49.489Z,97402.22
2023-05-12T07:11:20.485Z,97388.16
2023-05-12T07:13:53.153Z,97387.31
2023-05-12T07:16:22.918Z,97392.91
2023-05-12T07:18:53.624Z,97390.53
2023-05-12T07:21:24.671Z,97389.75
2023-05-12T07:23:54.092Z,97384.88
2023-05-12T07:26:25.512Z,97394.78
2023-05-12T07:28:57.038Z,97391.19
2023-05-12T07:31:27.048Z,97388.25
2023-05-12T07:33:57.504Z,97375.47
2023-05-12T07:36:28.770Z,97378.94
2023-05-12T07:39:00.256Z,97381.03
2023-05-12T07:41:34.616Z,97384.47
2023-05-12T07:44:07.777Z,97384.31
2023-05-12T07:46:38.856Z,97383.78
2023-05-12T07:49:09.492Z,97387.13
2023-05-12T07:51:40.225Z,97384.47
2023-05-12T07:54:10.806Z,97380.50
2023-05-12T07:56:41.456Z,97385.28
2023-05-12T07:59:14.952Z,97385.41
2023-05-12T08:01:45.631Z,97379.53
2023-05-12T08:04:16.689Z,97393.56
2023-05-12T08:06:46.630Z,97390.50
2023-05-12T08:09:16.559Z,97383.69
2023-05-12T08:11:48.736Z,97384.56
2023-05-12T08:14:26.262Z,97390.47
2023-05-12T08:16:56.716Z,97397.06
2023-05-12T08:19:27.023Z,97392.63
2023-05-12T08:21:59.008Z,97388.75
2023-05-12T08:24:29.671Z,97391.19
2023-05-12T08:26:59.258Z,97386.50
2023-05-12T08:29:31.958Z,97396.09
2023-05-12T08:32:02.330Z,97394.75
2023-05-12T08:34:32.701Z,97404.09
2023-05-12T08:37:03.259Z,97409.78
2023-05-12T08:39:34.763Z,97406.81
2023-05-12T08:42:14.458Z,97403.53
2023-05-12T08:44:45.638Z,97404.28
2023-05-12T08:47:15.951Z,97407.22
2023-05-12T08:49:47.277Z,97412.69
2023-05-12T08:52:22.315Z,97411.19
2023-05-12T08:54:56.619Z,97412.22
2023-05-12T08:57:28.722Z,97406.63
2023-05-12T09:00:01.389Z,97411.22
2023-05-12T09:02:44.977Z,97421.25
2023-05-12T09:05:23.024Z,97420.72
2023-05-12T09:07:55.056Z,97416.72
2023-05-12T09:10:35.013Z,97408.88
2023-05-12T09:13:08.776Z,97418.78
2023-05-12T09:15:45.973Z,97418.78
2023-05-12T09:18:15.621Z,97428.56
2023-05-12T09:20:46.579Z,97433.34
2023-05-12T09:23:22.771Z,97436.13
2023-05-12T09:26:04.439Z,97429.06
2023-05-12T09:28:39.695Z,97426.03
2023-05-12T09:31:25.176Z,97425.09
2023-05-12T09:33:55.848Z,97426.03
2023-05-12T09:36:31.086Z,97424.84
2023-05-12T09:39:05.310Z,97425.31
2023-05-12T09:41:38.825Z,97421.50
2023-05-12T09:44:10.129Z,97423.44
2023-05-12T09:46:42.460Z,97412.78
2023-05-12T09:49:13.554Z,97416.72
2023-05-12T09:51:44.539Z,97420.25
2023-05-12T09:54:15.498Z,97419.19
2023-05-12T09:56:46.440Z,97417.47
2023-05-12T09:59:17.194Z,97411.06
2023-05-12T10:01:49.809Z,97419.69
2023-05-12T10:04:20.447Z,97418.44
2023-05-12T10:06:51.548Z,97419.16
2023-05-12T10:09:24.640Z,97420.84
2023-05-12T10:11:56.852Z,97412.81
2023-05-12T10:14:27.591Z,97424.81
2023-05-12T10:17:01.950Z,97420.84
2023-05-12T10:19:33.134Z,97422.00
2023-05-12T10:22:04.080Z,97417.88
2023-05-12T10:24:33.729Z,97420.66
2023-05-12T10:27:03.978Z,97416.19
2023-05-12T10:29:34.767Z,97417.56
2023-05-12T10:32:10.951Z,97423.72
2023-05-12T10:34:44.684Z,97420.56
2023-05-12T10:37:16.358Z,97425.91
2023-05-12T10:39:50.833Z,97429.94
2023-05-12T10:42:27.631Z,97428.69
2023-05-12T10:44:59.642Z,97429.84
2023-05-12T10:47:39.910Z,97425.25
2023-05-12T10:50:16.992Z,97431.47
2023-05-12T10:52:55.662Z,97430.59
2023-05-12T10:55:35.352Z,97433.88
2023-05-12T10:58:12.550Z,97440.66
2023-05-12T11:00:49.629Z,97444.41
2023-05-12T11:03:28.900Z,97449.44
2023-05-12T11:06:05.192Z,97446.28
2023-05-12T11:08:36.197Z,97445.06
2023-05-12T11:11:09.037Z,97439.78
2023-05-12T11:13:39.582Z,97442.50
2023-05-12T11:16:14.124Z,97437.34
2023-05-12T11:18:45.848Z,97440.31
2023-05-12T11:21:16.546Z,97446.19
2023-05-12T11:23:53.184Z,97435.72
2023-05-12T11:26:23.864Z,97441.50
2023-05-12T11:28:54.293Z,97444.81
2023-05-12T11:31:24.921Z,97441.22
2023-05-12T11:34:13.187Z,97447.72
2023-05-12T11:36:46.773Z,97440.31
2023-05-12T11:39:19.111Z,97440.69
2023-05-12T11:41:51.374Z,97455.94
2023-05-12T11:44:24.676Z,97450.16
2023-05-12T11:46:59.640Z,97449.66
2023-05-12T11:49:33.788Z,97447.38
2023-05-12T11:52:04.794Z,97448.81
2023-05-12T11:54:35.523Z,97445.47
2023-05-12T11:57:07.011Z,97454.78
2023-05-12T11:59:37.867Z,97442.94
2023-05-12T12:02:08.387Z,97451.44
2023-05-12T12:04:43.660Z,97448.31
2023-05-12T12:07:14.043Z,97452.56
2023-05-12T12:09:44.479Z,97451.97
2023-05-12T12:12:14.998Z,97455.50
2023-05-12T12:14:47.408Z,97455.09
2023-05-12T12:17:18.030Z,97466.38
2023-05-12T12:19:53.951Z,97456.59
2023-05-12T12:22:25.912Z,97456.03
2023-05-12T12:24:56.963Z,97457.66
2023-05-12T12:27:26.743Z,97457.75
2023-05-12T12:29:57.414Z,97452.53
2023-05-12T12:32:28.889Z,97460.38
2023-05-12T12:35:07.740Z,97454.31
2023-05-12T12:37:38.200Z,97461.50
2023-05-12T12:40:10.662Z,97454.59
2023-05-12T12:42:42.382Z,97462.75
2023-05-12T12:45:15.608Z,97462.88
2023-05-12T12:47:48.360Z,97460.22
2023-05-12T12:50:21.743Z,97466.50
2023-05-12T12:52:52.476Z,97468.31
2023-05-12T12:55:23.303Z,97456.47
2023-05-12T12:57:56.238Z,97457.75
2023-05-12T13:00:27.335Z,97471.13
2023-05-12T13:02:57.519Z,97463.66
2023-05-12T13:05:30.908Z,97467.50
2023-05-12T13:08:01.835Z,97468.03
2023-05-12T13:10:32.994Z,97468.47
2023-05-12T13:13:03.253Z,97464.63
2023-05-12T13:15:33.849Z,97460.66
2023-05-12T13:18:03.738Z,97470.38
2023-05-12T13:20:36.365Z,97467.75
2023-05-12T13:23:06.723Z,97465.41
2023-05-12T13:25:37.553Z,97474.94
2023-05-12T13:28:08.495Z,97469.22
2023-05-12T13:30:38.584Z,97473.84
2023-05-12T13:33:08.893Z,97481.75
2023-05-12T13:35:41.794Z,97481.81
2023-05-12T13:38:12.093Z,97478.38
2023-05-12T13:40:43.488Z,97488.25
2023-05-12T13:43:13.969Z,97480.13
2023-05-12T13:45:44.722Z,97472.47
2023-05-12T13:48:17.717Z,97477.81
2023-05-12T13:50:52.100Z,97478.53
2023-05-12T13:53:22.674Z,97486.84
2023-05-12T13:55:54.681Z,97474.50
2023-05-12T13:58:24.898Z,97485.06
2023-05-12T14:00:58.319Z,97485.19
2023-05-12T14:03:29.773Z,97479.22
2023-05-12T14:06:01.788Z,97484.34
2023-05-12T14:08:32.414Z,97487.78
2023-05-12T14:11:05.516Z,97486.03
2023-05-12T14:13:37.069Z,97495.78
2023-05-12T14:16:09.251Z,97494.94
2023-05-12T14:18:41.964Z,97492.72
2023-05-12T14:21:16.710Z,97494.94
2023-05-12T14:23:49.304Z,97487.97
2023-05-12T14:26:22.141Z,97497.91
2023-05-12T14:28:55.721Z,97492.97
2023-05-12T14:31:27.254Z,97496.66
2023-05-12T14:33:58.901Z,97507.94
2023-05-12T14:36:31.316Z,97497.56
2023-05-12T14:39:04.163Z,97497.97
2023-05-12T14:41:34.534Z,97495.34
2023-05-12T14:44:04.933Z,97493.91
2023-05-12T14:46:36.503Z,97499.38
2023-05-12T14:49:10.906Z,97497.13
2023-05-12T14:51:44.321Z,97505.03
2023-05-12T14:54:24.830Z,97504.78
2023-05-12T14:56:56.324Z,97506.09
2023-05-12T14:59:27.455Z,97505.47
2023-05-12T15:01:58.959Z,97510.81
2023-05-12T15:04:29.446Z,97507.69
2023-05-12T15:07:02.489Z,97504.72
2023-05-12T15:09:33.200Z,97514.69
2023-05-12T15:12:04.861Z,97511.78
2023-05-12T15:14:35.980Z,97509.38
2023-05-12T15:17:07.415Z,97513.84
2023-05-12T15:19:38.043Z,97514.44
2023-05-12T15:22:11.431Z,97512.53
2023-05-12T15:24:41.190Z,97511.09
2023-05-12T15:27:12.521Z,97510.00
2023-05-12T15:29:43.286Z,97514.56
2023-05-12T15:32:14.769Z,97507.63
2023-05-12T15:34:47.031Z,97511.78
2023-05-12T15:37:19.956Z,97517.22
2023-05-12T15:39:51.904Z,97513.41
2023-05-12T15:42:26.604Z,97521.31
2023-05-12T15:45:03.123Z,97521.31
2023-05-12T15:47:34.470Z,97519.28
2023-05-12T15:50:06.963Z,97520.94
2023-05-12T15:52:38.729Z,97528.56
2023-05-12T15:55:10.357Z,97534.19
2023-05-12T15:57:40.873Z,97532.88
2023-05-12T16:00:13.863Z,97529.13
2023-05-12T16:02:44.889Z,97530.47
2023-05-12T16:05:15.609Z,97529.41
2023-05-12T16:07:48.847Z,97537.84
2023-05-12T16:10:20.201Z,97527.88
2023-05-12T16:12:50.506Z,97532.38
2023-05-12T16:15:21.730Z,97528.78
2023-05-12T16:17:53.026Z,97529.03
2023-05-12T16:20:24.025Z,97532.38
2023-05-12T16:22:57.532Z,97539.59
2023-05-12T16:25:29.683Z,97537.78
2023-05-12T16:27:59.751Z,97539.94
2023-05-12T16:30:31.032Z,97539.50
2023-05-12T16:33:02.435Z,97539.00
2023-05-12T16:35:33.441Z,97540.19
2023-05-12T16:38:09.780Z,97552.53
2023-05-12T16:40:40.366Z,97553.78
2023-05-12T16:43:10.495Z,97555.66
2023-05-12T16:45:40.942Z,97555.63
2023-05-12T16:48:11.309Z,97545.19
2023-05-12T16:50:41.659Z,97542.56
2023-05-12T16:53:14.390Z,97551.06
2023-05-12T16:55:44.726Z,97558.97
2023-05-12T16:58:14.593Z,97556.63
2023-05-12T17:00:44.925Z,97552.25
2023-05-12T17:03:15.606Z,97555.69
2023-05-12T17:05:46.964Z,97566.56
2023-05-12T17:08:20.062Z,97563.81
2023-05-12T17:10:51.632Z,97567.41
2023-05-12T17:13:22.759Z,97575.75
2023-05-12T17:15:53.918Z,97574.53
2023-05-12T17:18:25.269Z,97571.53
2023-05-12T17:20:56.896Z,97576.28
2023-05-12T17:23:29.935Z,97577.97
2023-05-12T17:26:00.570Z,97583.25
2023-05-12T17:28:31.015Z,97583.25
2023-05-12T17:31:02.009Z,97592.78
2023-05-12T17:33:32.277Z,97595.34
2023-05-12T17:36:12.338Z,97592.31
2023-05-12T17:38:45.904Z,97584.03
2023-05-12T17:41:16.677Z,97600.25
2023-05-12T17:43:46.891Z,97593.19
2023-05-12T17:46:17.665Z,97605.38
2023-05-12T17:48:47.646Z,97595.03
2023-05-12T17:51:18.454Z,97597.25
2023-05-12T17:53:52.093Z,97599.56
2023-05-12T17:56:22.576Z,97608.75
2023-05-12T17:58:52.804Z,97594.31
2023-05-12T18:01:22.369Z,97602.31
2023-05-12T18:03:53.904Z,97610.19
2023-05-12T18:06:24.490Z,97610.19
2023-05-12T18:08:57.479Z,97608.38
2023-05-12T18:11:29.623Z,97605.19
2023-05-12T18:14:02.328Z,97599.59
2023-05-12T18:16:32.254Z,97607.41
2023-05-12T18:19:03.471Z,97607.19
2023-05-12T18:21:34.078Z,97604.06
2023-05-12T18:24:07.015Z,97611.47
2023-05-12T18:26:38.408Z,97609.41
2023-05-12T18:29:09.801Z,97615.81
2023-05-12T18:31:40.206Z,97614.09
2023-05-12T18:34:10.232Z,97611.44
2023-05-12T18:36:40.718Z,97612.19
2023-05-12T18:39:15.170Z,97617.59
2023-05-12T18:41:47.023Z,97617.69
2023-05-12T18:44:18.220Z,97610.97
2023-05-12T18:46:48.384Z,97625.13
2023-05-12T18:49:19.104Z,97628.25
2023-05-12T18:51:49.039Z,97625.75
2023-05-12T18:54:20.468Z,97631.03
2023-05-12T18:56:51.658Z,97634.84
2023-05-12T18:59:22.576Z,97632.59
2023-05-12T19:01:52.500Z,97635.66
2023-05-12T19:04:24.036Z,97640.47
2023-05-12T19:06:54.802Z,97648.19
2023-05-12T19:09:37.690Z,97639.56
2023-05-12T19:12:11.862Z,97653.13
2023-05-12T19:14:43.986Z,97650.06
2023-05-12T19:17:15.816Z,97648.81
2023-05-12T19:19:46.986Z,97647.38
2023-05-12T19:22:17.008Z,97651.41
2023-05-12T19:24:49.404Z,97650.97
2023-05-12T19:27:19.972Z,97657.63
2023-05-12T19:29:50.954Z,97657.06
2023-05-12T19:32:21.416Z,97653.13
2023-05-12T19:34:52.950Z,97660.13
2023-05-12T19:37:23.334Z,97663.97
2023-05-12T19:39:55.907Z,97662.66
2023-05-12T19:42:26.229Z,97666.16
2023-05-12T19:44:56.354Z,97670.19
2023-05-12T19:47:26.696Z,97672.69
2023-05-12T19:49:56.684Z,97676.97
2023-05-12T19:52:29.600Z,97676.66
2023-05-12T19:55:01.533Z,97683.31
2023-05-12T19:57:31.444Z,97679.88
2023-05-12T20:00:01.398Z,97680.84
2023-05-12T20:02:31.561Z,97682.25
2023-05-12T20:05:01.633Z,97683.41
2023-05-12T20:07:31.814Z,97681.75
2023-05-12T20:10:04.262Z,97684.13
2023-05-12T20:12:34.098Z,97682.50
2023-05-12T20:15:04.046Z,97685.66
2023-05-12T20:17:34.342Z,97685.09
2023-05-12T20:20:04.938Z,97680.69
2023-05-12T20:22:35.418Z,97678.41
2023-05-12T20:25:08.167Z,97678.81
2023-05-12T20:27:38.899Z,97685.53
2023-05-12T20:30:11.280Z,97678.69
2023-05-12T20:32:41.317Z,97681.16
2023-05-12T20:35:12.586Z,97677.69
2023-05-12T20:37:42.965Z,97682.72
2023-05-12T20:40:15.032Z,97687.47
2023-05-12T20:42:46.875Z,97686.47
2023-05-12T20:45:17.930Z,97685.84
2023-05-12T20:47:48.544Z,97688.91
2023-05-12T20:50:18.884Z,97687.50
2023-05-12T20:52:50.198Z,97687.72
2023-05-12T20:55:22.579Z,97690.09
2023-05-12T20:57:53.447Z,97685.59
2023-05-12T21:00:23.854Z,97692.34
2023-05-12T21:02:56.211Z,97687.84
2023-05-12T21:05:26.415Z,97681.31
2023-05-12T21:07:56.065Z,97680.78
2023-05-12T21:10:28.025Z,97683.22
2023-05-12T21:12:58.605Z,97686.22
2023-05-12T21:15:29.625Z,97690.56
2023-05-12T21:17:59.948Z,97698.84
2023-05-12T21:20:31.002Z,97689.38
2023-05-12T21:23:01.206Z,97690.38
2023-05-12T21:25:32.820Z,97690.38
2023-05-12T21:28:02.761Z,97693.22
2023-05-12T21:30:32.731Z,97687.41
2023-05-12T21:33:02.577Z,97692.25
2023-05-12T21:35:32.965Z,97699.41
2023-05-12T21:38:03.136Z,97687.75
2023-05-12T21:40:35.962Z,97682.53
2023-05-12T21:43:05.722Z,97685.13
2023-05-12T21:45:36.378Z,97694.19
2023-05-12T21:48:07.455Z,97692.44
2023-05-12T21:50:37.728Z,97687.56
2023-05-12T21:53:08.161Z,97694.31
2023-05-12T21:55:40.436Z,97696.00
2023-05-12T21:58:11.067Z,97703.25
2023-05-12T22:00:41.368Z,97707.09
2023-05-12T22:03:10.911Z,97698.72
2023-05-12T22:05:41.927Z,97700.31
2023-05-12T22:08:12.744Z,97701.53
2023-05-12T22:10:44.234Z,97703.63
2023-05-12T22:13:14.194Z,97703.34
2023-05-12T22:15:44.480Z,97702.72
2023-05-12T22:18:15.286Z,97697.72
2023-05-12T22:20:45.862Z,97694.59
2023-05-12T22:23:15.861Z,97696.78
2023-05-12T22:25:48.310Z,97703.34
2023-05-12T22:28:19.110Z,97706.19
2023-05-12T22:30:50.080Z,97696.91
2023-05-12T22:33:20.110Z,97690.75
2023-05-12T22:35:50.554Z,97702.75
2023-05-12T22:38:20.157Z,97694.75
2023-05-12T22:40:51.895Z,97700.66
2023-05-12T22:43:22.536Z,97696.47
2023-05-12T22:45:53.746Z,97700.53
2023-05-12T22:48:25.524Z,97704.66
2023-05-12T22:50:56.785Z,97695.66
2023-05-12T22:53:26.633Z,97698.56
2023-05-12T22:55:58.046Z,97694.59
2023-05-12T22:58:28.515Z,97697.22
2023-05-12T23:00:58.270Z,97699.28
2023-05-12T23:03:28.572Z,97694.88
2023-05-12T23:05:59.134Z,97693.34
2023-05-12T23:08:29.718Z,97687.50
2023-05-12T23:11:01.932Z,97692.59
2023-05-12T23:13:32.195Z,97688.56
2023-05-12T23:16:02.971Z,97694.81
2023-05-12T23:18:33.690Z,97690.75
2023-05-12T23:21:03.439Z,97689.41
2023-05-12T23:23:33.987Z,97685.94
2023-05-12T23:26:05.679Z,97684.28
2023-05-12T23:28:35.971Z,97688.34
2023-05-12T23:31:06.190Z,97683.38
2023-05-12T23:33:36.745Z,97684.94
2023-05-12T23:36:08.725Z,97679.13
2023-05-12T23:38:39.238Z,97677.56
2023-05-12T23:41:11.788Z,97680.88
2023-05-12T23:43:42.725Z,97672.00
2023-05-12T23:46:13.747Z,97673.44
2023-05-12T23:48:43.618Z,97672.34
2023-05-12T23:51:13.398Z,97667.78
2023-05-12T23:53:43.079Z,97671.47
2023-05-12T23:56:14.247Z,97668.31
2023-05-12T23:58:44.502Z,97669.84
